M I D A S
Marine Information and Data Acquisition System
Tripno 403 of the Zeeleeuw from 2002-12-03 11:20:06 to 2002-12-03 16:31:27
Back to CruiseResearch ActivitiesStationsMapUnderway DataData graphs

EquipmentUnitsComment
TimeDGPSUTC
LatitudeDGPSDM.mWGS84
LongitudeDGPSDM.mWGS84
TemperatureSBE03/SBE38deg celciusITS90
ConductivitySBE21S/mITS90
SalinitySBE21 Practical Salinity Units
ChlorophylAChelsea fluorimeterg/lCalibrated in Aceton
Missing or incorrect values are displayed as -999
Sea surface data collected by the RV Zeeleeuw from 2002-12-03 11:20:06 to 2002-12-03 16:31:27
Time Latitude Longitude Temperature Conductivity Salinity ChlorophylA
2002-12-03 11:21:08 51°13.963 2°55.536 9.344367 2.869735 25.866053  
2002-12-03 11:22:08 51°14.068 2°55.461 9.322143 2.873103 25.906584  
2002-12-03 11:23:07 51°14.186 2°55.368 9.372929 2.885415 26.028365  
2002-12-03 11:24:08 51°14.307 2°55.187 9.313944 2.936876 26.526112  
2002-12-03 11:25:08 51°14.423 2°54.981 9.473152 2.903936 26.218562  
2002-12-03 11:26:08 51°14.561 2°54.789 10.195917 3.316098 30.192309  
2002-12-03 11:27:08 51°14.689 2°54.566 10.418731 3.579557 32.61544  
2002-12-03 11:28:08 51°14.818 2°54.321 10.574478 3.644674 33.077818  
2002-12-03 11:29:07 51°14.934 2°54.066 10.5309 3.68282 33.343173  
2002-12-03 11:30:08 51°15.045 2°53.781 10.485758 3.68282 33.352835  
2002-12-03 11:31:08 51°15.152 2°53.487 10.446034 3.668805 33.266497  
2002-12-03 11:32:08 51°15.241 2°53.183 10.441702 3.683136 33.395478  
2002-12-03 11:33:08 51°15.307 2°52.874 10.415282 3.716543 33.707994  
2002-12-03 11:34:08 51°15.369 2°52.563 10.438208 3.727925 33.813151  
2002-12-03 11:35:08 51°15.413 2°52.248 10.58187 3.726976 33.770439  
2002-12-03 11:36:08 51°15.427 2°51.929 10.53746 3.740255 33.829861  
2002-12-03 11:37:08 51°15.421 2°51.609 10.485897 3.74447 33.827982  
2002-12-03 11:38:08 51°15.4 2°51.29 10.927748 3.748369 33.846942  
2002-12-03 11:39:08 51°15.352 2°50.978 10.567597 3.75269 33.867874  
2002-12-03 11:40:08 51°15.291 2°50.669 10.707867 3.756062 33.884509  
2002-12-03 11:41:08 51°15.238 2°50.359 10.614542 3.764599 33.942494  
2002-12-03 11:42:08 51°15.181 2°50.051 10.700582 3.778722 34.020404  
2002-12-03 11:43:08 51°15.129 2°49.743 10.792951 3.78515 34.052571  
2002-12-03 11:44:08 51°15.08 2°49.429 10.61417 3.786626 34.055344  
2002-12-03 11:45:08 51°15.032 2°49.113 10.664564 3.788101 34.061119  
2002-12-03 11:46:08 51°15.019 2°48.785 10.803747 3.789366 34.055775  
2002-12-03 11:47:08 51°14.998 2°48.459 10.735097 3.78926 34.032979  
2002-12-03 11:48:08 51°14.966 2°48.139 10.825519 3.792422 34.070624  
2002-12-03 11:49:07 51°14.925 2°47.829 10.771308 3.793898 34.109429  
2002-12-03 11:50:08 51°14.88 2°47.511 10.63345 3.794109 34.113796  
2002-12-03 11:51:08 51°14.836 2°47.197 10.993841 3.797482 34.129539  
2002-12-03 11:52:08 51°14.792 2°46.881 10.770242 3.799379 34.137263  
2002-12-03 11:53:08 51°14.747 2°46.556 10.84682 3.798009 34.12054  
2002-12-03 11:54:08 51°14.701 2°46.227 10.8075 3.799906 34.139533  
2002-12-03 11:55:08 51°14.655 2°45.898 10.805183 3.799906 34.140285  
2002-12-03 11:56:08 51°14.612 2°45.565 10.877602 3.799484 34.13907  
2002-12-03 11:57:08 51°14.576 2°45.228 10.683225 3.799484 34.141325  
2002-12-03 11:58:08 51°14.538 2°44.896 10.789337 3.798641 34.138895  
2002-12-03 11:59:08 51°14.502 2°44.567 10.823388 3.797903 34.136769  
2002-12-03 12:00:08 51°14.465 2°44.239 10.689166 3.797693 34.13541  
2002-12-03 12:01:08 51°14.436 2°43.909 10.86617 3.798641 34.122364  
2002-12-03 12:02:08 51°14.409 2°43.578 10.821999 3.799484 34.107533  
2002-12-03 12:03:08 51°14.387 2°43.245 10.791515 3.803172 34.112928  
2002-12-03 12:04:08 51°14.369 2°42.912 10.990838 3.808758 34.122294  
2002-12-03 12:05:08 51°14.351 2°42.579 10.960017 3.812131 34.11257  
2002-12-03 12:06:08 51°14.331 2°42.246 11.086214 3.816662 34.11667  
2002-12-03 12:07:08 51°14.313 2°41.912 11.049483 3.824778 34.151966  
2002-12-03 12:08:08 51°14.292 2°41.579 10.979288 3.828572 34.165852  
2002-12-03 12:09:08 51°14.272 2°41.243 10.99943 3.828678 34.167646  
2002-12-03 12:10:08 51°14.289 2°40.902 10.970231 3.83068 34.18906  
2002-12-03 12:11:08 51°14.324 2°40.563 11.324281 3.838796 34.219026  
2002-12-03 12:12:08 51°14.391 2°40.232 11.106739 3.844804 34.234719  
2002-12-03 12:13:08 51°14.493 2°39.918 11.386304 3.85176 34.255333  
2002-12-03 12:14:08 51°14.621 2°39.623 11.554712 3.871259 34.303451  
2002-12-03 12:15:08 51°14.754 2°39.335 11.737949 3.901616 34.405746  
2002-12-03 12:16:08 51°14.891 2°39.049 11.982465 3.923752 34.476933  
2002-12-03 12:17:08 51°15.033 2°38.767 11.605215 3.925123 34.480781  
2002-12-03 12:18:08 51°15.18 2°38.491 11.547016 3.919325 34.457116  
2002-12-03 12:19:08 51°15.328 2°38.22 11.640585 3.917849 34.447803  
2002-12-03 12:20:08 51°15.477 2°37.956 11.706744 3.920484 34.453005  
2002-12-03 12:21:08 51°15.627 2°37.697 11.616336 3.925228 34.470023  
2002-12-03 12:22:08 51°15.78 2°37.436 11.704779 3.927758 34.477128  
2002-12-03 12:23:08 51°15.934 2°37.171 11.715564 3.929023 34.481415  
2002-12-03 12:24:08 51°16.094 2°36.912 11.961755 3.928179 34.465798  
2002-12-03 12:25:08 51°16.202 2°36.76 11.708709 3.925017 34.446609  
2002-12-03 12:26:08 51°16.253 2°36.681 11.716843 3.925966 34.445599  
2002-12-03 12:27:08 51°16.27 2°36.648 11.810172 3.928285 34.455061  
2002-12-03 12:28:08 51°16.275 2°36.644 11.850084 3.929444 34.45685  
2002-12-03 12:29:08 51°16.28 2°36.66 11.855647 3.930604 34.465254  
2002-12-03 12:30:08 51°16.284 2°36.684 11.933115 3.931658 34.46895  
2002-12-03 12:31:08 51°16.282 2°36.7 11.787217 3.93208 34.470869  
2002-12-03 12:32:08 51°16.267 2°36.691 11.780233 3.93208 34.470869  
2002-12-03 12:33:08 51°16.256 2°36.66 11.815327 3.930815 34.463641  
2002-12-03 12:34:08 51°16.262 2°36.615 11.817335 3.931236 34.466295  
2002-12-03 12:35:08 51°16.282 2°36.564 11.711086 3.931025 34.464233  
2002-12-03 12:36:08 51°16.319 2°36.526 11.719767 3.932712 34.47191  
2002-12-03 12:37:08 51°16.361 2°36.504 11.653438 3.933872 34.475165  
2002-12-03 12:38:08 51°16.405 2°36.49 11.998164 3.93482 34.477093  
2002-12-03 12:39:08 51°16.453 2°36.482 11.865312 3.936401 34.483734  
2002-12-03 12:40:08 51°16.498 2°36.476 11.717574 3.939142 34.492155  
2002-12-03 12:41:08 51°16.547 2°36.476 11.739914 3.943675 34.494585  
2002-12-03 12:42:06 51°16.597 2°36.488 11.75156 3.944729 34.490207  
2002-12-03 12:43:08 51°16.65 2°36.518 11.799631 3.946732 34.49582  
2002-12-03 12:44:08 51°16.699 2°36.561 11.842651 3.94884 34.507587  
2002-12-03 12:45:08 51°16.743 2°36.612 11.774573 3.950316 34.515383  
2002-12-03 12:46:08 51°16.78 2°36.669 11.777357 3.950843 34.515392  
2002-12-03 12:47:08 51°16.815 2°36.727 11.778909 3.951792 34.522443  
2002-12-03 12:48:08 51°16.845 2°36.787 11.779275 3.951265 34.518037  
2002-12-03 12:49:08 51°16.872 2°36.847 11.775486 3.951581 34.518922  
2002-12-03 12:50:08 51°16.896 2°36.907 11.769642 3.95137 34.521996  
2002-12-03 12:51:08 51°16.92 2°36.969 11.767314 3.950316 34.515383  
2002-12-03 12:52:08 51°16.94 2°37.033 11.765168 3.950421 34.51641  
2002-12-03 12:53:08 51°16.955 2°37.099 11.760784 3.949894 34.515668  
2002-12-03 12:54:08 51°16.967 2°37.163 11.759688 3.949473 34.513022  
2002-12-03 12:55:08 51°16.97 2°37.229 11.747267 3.949051 34.511109  
2002-12-03 12:56:08 51°16.956 2°37.293 11.742426 3.947891 34.510796  
2002-12-03 12:57:08 51°16.927 2°37.328 11.727991 3.947048 34.507701  
2002-12-03 12:58:08 51°16.896 2°37.314 11.709578 3.944307 34.496358  
2002-12-03 12:59:08 51°16.881 2°37.275 11.7035 3.941883 34.490296  
2002-12-03 13:00:08 51°16.89 2°37.248 11.709075 3.941777 34.486332  
2002-12-03 13:01:08 51°16.907 2°37.227 11.719036 3.942621 34.491631  
2002-12-03 13:02:08 51°16.925 2°37.211 11.738817 3.944518 34.497682  
2002-12-03 13:03:08 51°16.942 2°37.2 11.752291 3.947048 34.50037  
2002-12-03 13:04:08 51°16.959 2°37.192 11.758318 3.947997 34.504493  
2002-12-03 13:05:08 51°16.972 2°37.163 11.753387 3.948735 34.510224  
2002-12-03 13:06:08 51°17.006 2°37.08 11.766035 3.949367 34.514193  
2002-12-03 13:07:08 51°17.069 2°37.047 11.784798 3.951265 34.519503  
2002-12-03 13:08:06 51°17.136 2°37.058 11.796436 3.954111 34.531859  
2002-12-03 13:09:08 51°17.203 2°37.108 11.800635 3.95506 34.530848  
2002-12-03 13:10:08 51°17.252 2°37.174 11.819023 3.956641 34.534535  
2002-12-03 13:11:08 51°17.291 2°37.242 11.887875 3.957484 34.535427  
2002-12-03 13:12:08 51°17.323 2°37.314 11.814096 3.957273 34.53557  
2002-12-03 13:13:08 51°17.349 2°37.393 11.809761 3.9578 34.539239  
2002-12-03 13:14:08 51°17.37 2°37.468 11.799905 3.956535 34.535705  
2002-12-03 13:15:08 51°17.386 2°37.543 11.788039 3.95527 34.530705  
2002-12-03 13:16:08 51°17.394 2°37.622 11.776673 3.954111 34.531859  
2002-12-03 13:17:08 51°17.391 2°37.697 11.769642 3.952846 34.529788  
2002-12-03 13:18:08 51°17.379 2°37.761 11.802688 3.952003 34.524498  
2002-12-03 13:19:07 51°17.353 2°37.804 11.756081 3.951159 34.521407  
2002-12-03 13:20:08 51°17.329 2°37.823 11.744892 3.949367 34.51566  
2002-12-03 13:21:08 51°17.309 2°37.823 11.738452 3.948313 34.511243  
2002-12-03 13:22:08 51°17.281 2°37.797 11.729225 3.946837 34.506378  
2002-12-03 13:23:08 51°17.271 2°37.74 11.736808 3.945994 34.504016  
2002-12-03 13:24:08 51°17.275 2°37.677 11.743522 3.947153 34.504331  
2002-12-03 13:25:08 51°17.291 2°37.618 11.752199 3.94884 34.514184  
2002-12-03 13:26:08 51°17.312 2°37.574 11.761058 3.950211 34.518752  
2002-12-03 13:27:08 51°17.342 2°37.536 11.774344 3.950948 34.518618  
2002-12-03 13:28:08 51°17.38 2°37.507 11.782881 3.952741 34.528028  
2002-12-03 13:29:08 51°17.422 2°37.49 11.795295 3.954216 34.530688  
2002-12-03 13:30:08 51°17.467 2°37.484 11.80789 3.955798 34.534375  
2002-12-03 13:31:08 51°17.516 2°37.489 11.821395 3.957168 34.536008  
2002-12-03 13:32:08 51°17.567 2°37.507 11.823767 3.957906 34.533677  
2002-12-03 13:33:08 51°17.619 2°37.559 11.831522 3.958222 34.529438  
2002-12-03 13:34:08 51°17.65 2°37.64 11.827371 3.958117 34.526217  
2002-12-03 13:35:08 51°17.656 2°37.719 11.836357 3.958433 34.527833  
2002-12-03 13:36:08 51°17.644 2°37.771 11.830519 3.959382 34.531947  
2002-12-03 13:37:08 51°17.631 2°37.77 11.81113 3.959171 34.543067  
2002-12-03 13:38:07 51°17.641 2°37.732 11.806156 3.957379 34.538793  
2002-12-03 13:39:08 51°17.687 2°37.702 11.824953 3.957273 34.536302  
2002-12-03 13:40:08 51°17.747 2°37.719 11.831066 3.957906 34.527823  
2002-12-03 13:41:08 51°17.794 2°37.768 11.831385 3.958644 34.527691  
2002-12-03 13:42:08 51°17.829 2°37.817 11.837497 3.958854 34.529743  
2002-12-03 13:43:09 51°17.86 2°37.863 11.835217 3.959592 34.533268  
2002-12-03 13:44:08 51°17.886 2°37.902 11.832662 3.959276 34.530921  
2002-12-03 13:45:08 51°17.909 2°37.94 11.829424 3.958854 34.529011  
2002-12-03 13:46:09 51°17.932 2°37.974 11.841921 3.959698 34.534294  
2002-12-03 13:47:07 51°17.953 2°38.006 11.839458 3.960119 34.534741  
2002-12-03 13:48:08 51°17.976 2°38.036 11.876846 3.959909 34.531957  
2002-12-03 13:49:08 51°17.999 2°38.064 11.840918 3.96033 34.536061  
2002-12-03 13:50:08 51°18.022 2°38.091 11.841921 3.960014 34.532252  
2002-12-03 13:51:08 51°18.045 2°38.116 11.842195 3.960541 34.535919  
2002-12-03 13:52:08 51°18.068 2°38.14 11.842423 3.960647 34.536213  
2002-12-03 13:53:08 51°18.091 2°38.163 11.840553 3.960647 34.535482  
2002-12-03 13:54:08 51°18.114 2°38.186 11.839321 3.960225 34.533572  
2002-12-03 13:55:08 51°18.138 2°38.209 11.83882 3.960119 34.533278  
2002-12-03 13:56:08 51°18.161 2°38.232 11.846208 3.960647 34.534019  
2002-12-03 13:57:08 51°18.184 2°38.254 11.843243 3.960541 34.532262  
2002-12-03 13:58:08 51°18.208 2°38.277 11.843882 3.961068 34.533004  
2002-12-03 13:59:08 51°18.231 2°38.297 11.846116 3.960752 34.532851  
2002-12-03 14:00:08 51°18.254 2°38.316 11.846299 3.961068 34.534466  
2002-12-03 14:01:08 51°18.277 2°38.336 11.886007 3.961174 34.53476  
2002-12-03 14:02:08 51°18.299 2°38.366 11.847485 3.961279 34.534324  
2002-12-03 14:03:08 51°18.364 2°38.484 11.845706 3.960119 34.527428  
2002-12-03 14:04:08 51°18.542 2°38.367 11.843608 3.960857 34.531683  
2002-12-03 14:05:08 51°18.756 2°38.194 11.801821 3.957378 34.514646  
2002-12-03 14:06:08 51°18.971 2°38.018 11.82249 3.95158 34.480134  
2002-12-03 14:07:08 51°19.187 2°37.842 11.858656 3.958011 34.509836  
2002-12-03 14:08:08 51°19.401 2°37.668 11.878851 3.961701 34.528192  
2002-12-03 14:09:08 51°19.61 2°37.499 11.88865 3.965285 34.542588  
2002-12-03 14:10:08 51°19.746 2°37.4 11.89544 3.96655 34.54685  
2002-12-03 14:11:08 51°19.834 2°37.352 11.8835 3.968237 34.560323  
2002-12-03 14:12:08 51°19.888 2°37.355 11.870829 3.965601 34.548586  
2002-12-03 14:13:08 51°19.948 2°37.384 11.871604 3.96402 34.541979  
2002-12-03 14:14:08 51°19.998 2°37.434 11.874703 3.963703 34.533058  
2002-12-03 14:15:08 51°20.039 2°37.497 11.87174 3.964758 34.547694  
2002-12-03 14:16:08 51°20.069 2°37.566 11.8835 3.964547 34.54272  
2002-12-03 14:17:08 51°20.089 2°37.637 11.887465 3.966655 34.55372  
2002-12-03 14:18:08 51°20.101 2°37.704 11.900134 3.967288 34.557677  
2002-12-03 14:19:08 51°20.102 2°37.768 11.908608 3.970345 34.571316  
2002-12-03 14:20:08 51°20.092 2°37.828 11.909383 3.971926 34.580837  
2002-12-03 14:21:08 51°20.062 2°37.874 11.931658 3.972137 34.578501  
2002-12-03 14:22:08 51°20.016 2°37.889 11.945456 3.975721 34.593595  
2002-12-03 14:23:08 51°19.968 2°37.87 11.959297 3.9792 34.613498  
2002-12-03 14:24:08 51°19.928 2°37.827 11.949235 3.980044 34.618033  
2002-12-03 14:25:08 51°19.897 2°37.767 11.934254 3.978462 34.609255  
2002-12-03 14:26:08 51°19.874 2°37.696 11.916991 3.975722 34.600902  
2002-12-03 14:27:08 51°19.863 2°37.623 11.911342 3.972243 34.580256  
2002-12-03 14:28:08 51°19.859 2°37.545 11.888058 3.970556 34.572634  
2002-12-03 14:29:08 51°19.861 2°37.469 11.885779 3.966866 34.55577  
2002-12-03 14:30:08 51°19.868 2°37.395 11.865996 3.966234 34.551082  
2002-12-03 14:31:08 51°19.885 2°37.32 11.839777 3.964336 34.547248  
2002-12-03 14:32:08 51°19.916 2°37.252 11.828785 3.959171 34.521851  
2002-12-03 14:33:08 51°19.96 2°37.195 11.821167 3.957062 34.510106  
2002-12-03 14:34:08 51°20.014 2°37.155 11.810628 3.955903 34.50613  
2002-12-03 14:35:08 51°20.075 2°37.144 11.814096 3.954321 34.495854  
2002-12-03 14:36:08 51°20.127 2°37.158 11.813594 3.954848 34.502448  
2002-12-03 14:37:08 51°20.171 2°37.184 11.815556 3.955059 34.502307  
2002-12-03 14:38:08 51°20.207 2°37.216 11.823585 3.955165 34.501871  
2002-12-03 14:39:08 51°20.241 2°37.25 11.833666 3.957168 34.511863  
2002-12-03 14:40:08 51°20.274 2°37.286 11.830017 3.957906 34.513196  
2002-12-03 14:41:08 51°20.3 2°37.367 11.844794 3.958538 34.515696  
2002-12-03 14:42:08 51°20.187 2°37.473 11.852957 3.960436 34.523195  
2002-12-03 14:43:08 51°19.992 2°37.514 11.851452 3.960857 34.527297  
2002-12-03 14:44:08 51°19.794 2°37.613 11.853549 3.963071 34.536406  
2002-12-03 14:45:08 51°19.594 2°37.713 11.849445 3.962439 34.533908  
2002-12-03 14:46:08 51°19.394 2°37.809 11.819798 3.960963 34.529785  
2002-12-03 14:47:08 51°19.194 2°37.908 11.810491 3.956535 34.510824  
2002-12-03 14:48:08 51°18.994 2°38.007 11.789317 3.954638 34.504051  
2002-12-03 14:49:08 51°18.788 2°38.111 11.781192 3.950843 34.48684  
2002-12-03 14:50:08 51°18.578 2°38.216 11.802825 3.949894 34.480524  
2002-12-03 14:51:08 51°18.368 2°38.323 11.831887 3.956851 34.51244  
2002-12-03 14:52:08 51°18.161 2°38.431 11.797623 3.960541 34.540308  
2002-12-03 14:53:08 51°17.955 2°38.541 11.709121 3.955376 34.532464  
2002-12-03 14:54:08 51°17.749 2°38.648 11.625167 3.939985 34.473971  
2002-12-03 14:55:08 51°17.543 2°38.754 11.577885 3.930709 34.44351  
2002-12-03 14:56:08 51°17.331 2°38.856 11.57184 3.924911 34.423523  
2002-12-03 14:57:08 51°17.119 2°38.952 11.57848 3.928074 34.444178  
2002-12-03 14:58:08 51°16.914 2°39.043 11.567582 3.92702 34.441948  
2002-12-03 14:59:08 51°16.704 2°39.139 11.564971 3.924279 34.423946  
2002-12-03 15:00:08 51°16.492 2°39.237 11.567856 3.92333 34.415396  
2002-12-03 15:01:08 51°16.28 2°39.333 11.630474 3.927652 34.443727  
2002-12-03 15:02:08 51°16.068 2°39.432 11.696416 3.937666 34.487282  
2002-12-03 15:03:08 51°15.858 2°39.53 11.672507 3.939775 34.492459  
2002-12-03 15:04:08 51°15.647 2°39.627 11.495048 3.937877 34.503306  
2002-12-03 15:05:08 51°15.441 2°39.743 11.402053 3.914898 34.432858  
2002-12-03 15:06:08 51°15.249 2°39.915 11.337196 3.904357 34.40166  
2002-12-03 15:07:08 51°15.068 2°40.114 11.30741 3.897716 34.379205  
2002-12-03 15:08:08 51°14.908 2°40.353 11.24973 3.892551 34.366073  
2002-12-03 15:09:08 51°14.762 2°40.61 11.001694 3.878638 34.326637  
2002-12-03 15:10:08 51°14.615 2°40.87 10.892455 3.847966 34.228868  
2002-12-03 15:11:08 51°14.467 2°41.127 10.903096 3.837636 34.187389  
2002-12-03 15:12:08 51°14.317 2°41.383 10.922892 3.841852 34.206168  
2002-12-03 15:13:08 51°14.186 2°41.601 11.006266 3.842485 34.201281  
2002-12-03 15:14:08 51°14.103 2°41.653 11.032726 3.849546 34.192528  
2002-12-03 15:15:08 51°14.05 2°41.646 11.040944 3.85197 34.200211  
2002-12-03 15:16:08 51°14.012 2°41.614 11.03859 3.852919 34.206634  
2002-12-03 15:17:08 51°14.004 2°41.544 11.041729 3.852603 34.206471  
2002-12-03 15:18:08 51°14.028 2°41.478 11.03859 3.852919 34.208117  
2002-12-03 15:19:08 51°14.071 2°41.452 11.033834 3.853024 34.206935  
2002-12-03 15:20:08 51°14.107 2°41.473 11.039282 3.852181 34.200814  
2002-12-03 15:21:08 51°14.124 2°41.518 11.034527 3.851865 34.198426  
2002-12-03 15:22:08 51°14.125 2°41.589 11.034019 3.851865 34.199167  
2002-12-03 15:23:08 51°14.113 2°41.661 11.035266 3.852181 34.203781  
2002-12-03 15:24:08 51°14.095 2°41.725 11.02871 3.85197 34.205403  
2002-12-03 15:25:08 51°14.071 2°41.785 11.02497 3.851232 34.200324  
2002-12-03 15:26:08 51°14.043 2°41.839 11.005343 3.850706 34.201784  
2002-12-03 15:27:08 51°14.017 2°41.895 10.993056 3.848598 34.197234  
2002-12-03 15:28:08 51°13.991 2°41.953 10.969676 3.843854 34.168053  
2002-12-03 15:29:08 51°13.963 2°42.009 10.945687 3.838584 34.137339  
2002-12-03 15:30:09 51°13.934 2°42.065 10.969214 3.834579 34.116916  
2002-12-03 15:31:08 51°13.904 2°42.116 10.926684 3.832049 34.103698  
2002-12-03 15:32:08 51°13.871 2°42.167 10.929042 3.830784 34.090409  
2002-12-03 15:33:09 51°13.836 2°42.215 10.931955 3.830047 34.080125  
2002-12-03 15:34:08 51°13.793 2°42.243 10.938752 3.829414 34.071629  
2002-12-03 15:35:08 51°13.744 2°42.244 10.942636 3.828676 34.060608  
2002-12-03 15:36:08 51°13.695 2°42.211 10.944716 3.829098 34.061084  
2002-12-03 15:37:07 51°13.658 2°42.151 10.945826 3.828465 34.054814  
2002-12-03 15:38:07 51°13.634 2°42.076 10.946427 3.828255 34.052724  
2002-12-03 15:39:07 51°13.626 2°41.999 10.940463 3.828149 34.051679  
2002-12-03 15:40:07 51°13.628 2°41.93 10.943098 3.827517 34.047631  
2002-12-03 15:41:07 51°13.632 2°41.861 10.956596 3.828676 34.053201  
2002-12-03 15:42:08 51°13.637 2°41.79 10.958029 3.829941 34.055373  
2002-12-03 15:43:07 51°13.644 2°41.721 10.942636 3.829308 34.052066  
2002-12-03 15:44:08 51°13.66 2°41.652 10.938567 3.828255 34.053465  
2002-12-03 15:45:08 51°13.758 2°41.55 10.972911 3.828255 34.054946  
2002-12-03 15:46:08 51°13.902 2°41.727 10.976053 3.830363 34.073625  
2002-12-03 15:47:08 51°13.986 2°42.048 10.92525 3.831417 34.089266  
2002-12-03 15:48:08 51°14.069 2°42.374 10.916602 3.830679 34.092331  
2002-12-03 15:49:08 51°14.157 2°42.693 10.909572 3.830258 34.095568  
2002-12-03 15:50:09 51°14.229 2°43.028 10.950772 3.831206 34.109434  
2002-12-03 15:51:09 51°14.292 2°43.361 10.919331 3.832155 34.115135  
2002-12-03 15:52:08 51°14.376 2°43.678 10.932094 3.83226 34.105047  
2002-12-03 15:53:08 51°14.452 2°44.003 10.939122 3.83226 34.09837  
2002-12-03 15:54:08 51°14.509 2°44.337 10.945733 3.833841 34.107374  
2002-12-03 15:55:08 51°14.546 2°44.675 10.965979 3.836055 34.121904  
2002-12-03 15:56:08 51°14.556 2°45.011 11.04376 3.840903 34.146968  
2002-12-03 15:57:08 51°14.576 2°45.349 11.035266 3.847859 34.17657  
2002-12-03 15:58:08 51°14.574 2°45.675 11.076664 3.8506 34.183682  
2002-12-03 15:59:06 51°14.563 2°45.991 11.017581 3.850389 34.186785  
2002-12-03 16:00:08 51°14.556 2°46.35 10.946334 3.848703 34.197535  
2002-12-03 16:01:09 51°14.58 2°46.699 10.914475 3.839533 34.183897  
2002-12-03 16:02:07 51°14.596 2°47.027 10.831724 3.83205 34.157213  
2002-12-03 16:03:07 51°14.603 2°47.365 10.782525 3.826253 34.142042  
2002-12-03 16:04:08 51°14.607 2°47.711 10.735653 3.819824 34.12354  
2002-12-03 16:05:09 51°14.667 2°48.04 10.705408 3.815081 34.116594  
2002-12-03 16:06:07 51°14.714 2°48.366 10.675149 3.812657 34.114089  
2002-12-03 16:07:09 51°14.771 2°48.707 10.618212 3.805807 34.089092  
2002-12-03 16:08:07 51°14.841 2°49.018 10.601438 3.797691 34.043941  
2002-12-03 16:09:08 51°14.915 2°49.347 10.592514 3.794424 34.024007  
2002-12-03 16:10:07 51°15.021 2°49.638 10.623973 3.792422 34.013714  
2002-12-03 16:11:08 51°15.145 2°49.929 10.574757 3.791157 34.007801  
2002-12-03 16:12:07 51°15.264 2°50.212 10.562203 3.789787 34.006815  
2002-12-03 16:13:06 51°15.367 2°50.505 10.584612 3.788522 34.006134  
2002-12-03 16:14:07 51°15.413 2°50.831 10.532854 3.787152 34.005149  
2002-12-03 16:15:07 51°15.415 2°51.087 10.466621 3.786098 34.007328  
2002-12-03 16:16:07 51°15.412 2°51.358 10.37351 3.772292 33.950678  
2002-12-03 16:17:07 51°15.406 2°51.638 10.315518 3.749844 33.82728  
2002-12-03 16:18:09 51°15.384 2°51.926 10.295304 3.744996 33.783815  
2002-12-03 16:19:07 51°15.304 2°52.179 10.246587 3.727924 33.68324  
2002-12-03 16:20:07 51°15.208 2°52.45 10.407825 3.74995 33.829837  
2002-12-03 16:21:07 51°15.114 2°52.737 10.114969 3.766496 33.922522  
2002-12-03 16:22:07 51°15.021 2°53.024 10.078861 3.661533 33.178331  
2002-12-03 16:23:07 51°14.93 2°53.315 10.059651 3.663746 33.208054  
2002-12-03 16:24:07 51°14.849 2°53.613 10.013948 3.62539 32.924468  
2002-12-03 16:25:07 51°14.775 2°53.917 10.002833 3.662167 33.279053  
2002-12-03 16:26:07 51°14.705 2°54.194 9.980176 3.67692 33.409566  
2002-12-03 16:27:07 51°14.624 2°54.448 9.918264 3.667752 33.381128  
2002-12-03 16:28:07 51°14.527 2°54.684 9.858972 3.651524 33.205668  
2002-12-03 16:29:08 51°14.429 2°54.925 9.690057 3.469143 31.505594  
2002-12-03 16:30:05 51°14.339 2°55.137 10.889494 3.442282 31.31533  
2002-12-03 16:31:08 51°14.239 2°55.296 10.711672 0.055931 0.385279